MSC Magnifica — 3FLO4 — position and weather

sailwx.info

Track history (hours):
 
Tides and Currents Weather Stations Pressure Air Temp Water Temp Dewpoint Dewpoint Depression Visibility Wind Speed Wind Dir Waves Ship Positions

MSC Magnifica

Last reported at 2017-Oct-18 10:25 UTC. Time now 2017-Oct-18 12:59 UTC.
Position N 40°08' E 002°29'.

Length 293 m; draft 7.8 m.

Type: Passenger vessel. MMSI: 352594000.

Date/timePositionNaut miles runAvg speedWind from/ knotsBaromVisibWave heightAir tempDewpointWater temp
2017-Oct-18 10:25N 40°08' E 002°29'919.8
2017-Oct-18 09:57N 40°13' E 002°38'920.5
2017-Oct-18 09:30N 40°19' E 002°48'1121.2
2017-Oct-18 08:59N 40°26' E 002°59'21620.1
2017-Oct-17 22:15N 42°45' E 006°40'720.4
2017-Oct-17 21:54N 42°50' E 006°47'1620.2
2017-Oct-17 21:05N 43°01' E 007°04'220.2
2017-Oct-17 21:00N 43°02' E 007°06'1020.3
2017-Oct-17 20:31N 43°09' E 007°16'1020.1
2017-Oct-17 20:01N 43°15' E 007°26'1020.0
2017-Oct-17 19:30N 43°22' E 007°36'1020.1
2017-Oct-17 19:01N 43°29' E 007°46'1020.4
2017-Oct-17 18:31N 43°36' E 007°56'1020.4
2017-Oct-17 18:00N 43°43' E 008°07'1020.5
2017-Oct-17 17:30N 43°50' E 008°17'1020.8
2017-Oct-17 17:00N 43°57' E 008°28'1122.0
2017-Oct-17 16:30N 44°05' E 008°38'1121.5
2017-Oct-17 16:01N 44°12' E 008°49'1020.7
2017-Oct-17 15:31N 44°21' E 008°57'4 8.0
2017-Oct-17 15:00N 44°25' E 008°55'0 0.0
2017-Oct-17 14:28N 44°25' E 008°55'0 0.0
2017-Oct-17 13:58N 44°25' E 008°55'0 0.0
2017-Oct-17 13:28N 44°25' E 008°55'0 0.0
2017-Oct-17 12:57N 44°25' E 008°55'0 0.0
2017-Oct-17 12:30N 44°25' E 008°55'0 0.0
2017-Oct-17 11:57N 44°25' E 008°55'0 0.0
2017-Oct-17 11:30N 44°25' E 008°55'0 0.0
2017-Oct-17 11:00N 44°25' E 008°55'0 0.0
2017-Oct-17 10:30N 44°25' E 008°55'0 0.0
2017-Oct-17 10:00N 44°25' E 008°55'0 0.0
2017-Oct-17 09:30N 44°25' E 008°55'0 0.0
2017-Oct-17 08:59N 44°25' E 008°55'0 0.0
2017-Oct-17 08:29N 44°25' E 008°55'0 0.0
2017-Oct-17 07:59N 44°25' E 008°55'0 0.0
2017-Oct-17 07:29N 44°25' E 008°55'0 0.2
2017-Oct-17 07:00N 44°25' E 008°55'1 2.7
2017-Oct-17 06:30N 44°23' E 008°56'3 5.9
2017-Oct-17 06:00N 44°21' E 008°58'815.2
2017-Oct-17 05:30N 44°14' E 008°53'918.1
2017-Oct-17 05:00N 44°07' E 008°45'917.7
2017-Oct-17 04:30N 44°01' E 008°37'917.7
2017-Oct-17 04:00N 43°54' E 008°29'917.7
2017-Oct-17 03:30N 43°47' E 008°21'917.5
2017-Oct-17 03:00N 43°41' E 008°12'714.9
2017-Oct-17 02:30N 43°37' E 008°04'814.8
2017-Oct-17 01:59N 43°32' E 007°55'714.7
2017-Oct-17 01:30N 43°29' E 007°47'714.8
2017-Oct-17 01:00N 43°25' E 007°38'714.8
2017-Oct-17 00:30N 43°21' E 007°29'714.7
2017-Oct-17 00:00N 43°18' E 007°20'814.5
2017-Oct-16 23:29N 43°14' E 007°11'714.3
2017-Oct-16 22:59N 43°11' E 007°03'714.1
2017-Oct-16 22:30N 43°08' E 006°54'713.7
2017-Oct-16 22:00N 43°04' E 006°46'813.9
2017-Oct-16 21:27N 43°00' E 006°37'813.8
2017-Oct-16 20:54N 42°57' E 006°28'513.9
2017-Oct-16 20:31N 42°56' E 006°21'714.3
2017-Oct-16 20:00N 42°56' E 006°11'714.3
2017-Oct-16 19:30N 42°57' E 006°01'714.5
2017-Oct-16 19:00N 42°59' E 005°52'714.5
2017-Oct-16 18:30N 43°02' E 005°43'1514.8
2017-Oct-16 17:28N 43°08' E 005°23'714.2
2017-Oct-16 17:00N 43°13' E 005°17'713.5
2017-Oct-16 16:28N 43°20' E 005°18'2 0.4
2017-Oct-16 11:52N 43°21' E 005°20'0 0.0
2017-Oct-16 11:28N 43°21' E 005°20'0 0.0
2017-Oct-16 08:16N 43°21' E 005°20'0 0.0
2017-Oct-16 07:49N 43°21' E 005°20'0 0.0
2017-Oct-16 07:22N 43°21' E 005°20'0 0.0
2017-Oct-16 06:54N 43°21' E 005°20'0 0.0
2017-Oct-16 06:09N 43°21' E 005°20'0 0.0
2017-Oct-16 06:00N 43°21' E 005°20'0 0.8
2017-Oct-16 05:30N 43°21' E 005°20'510.9
2017-Oct-16 05:00N 43°18' E 005°13'816.8
2017-Oct-16 04:30N 43°10' E 005°08'1117.9
2017-Oct-16 03:52N 43°01' E 004°58'617.7
2017-Oct-16 03:31N 42°56' E 004°54'714.7
2017-Oct-16 03:00N 42°50' E 004°48'1014.0
2017-Oct-16 02:19N 42°43' E 004°39'614.2
2017-Oct-16 01:53N 42°39' E 004°33'514.5
2017-Oct-16 01:31N 42°35' E 004°27'1614.5
2017-Oct-16 00:26N 42°24' E 004°12'614.9
2017-Oct-16 00:00N 42°20' E 004°05'715.0
2017-Oct-15 23:30N 42°15' E 003°58'1815.0
2017-Oct-15 22:20N 42°03' E 003°40'1318.0
2017-Oct-15 21:36N 41°54' E 003°27'6816.7
2017-Oct-15 17:32N 41°18' E 002°10'1 0.1
2017-Oct-15 09:11N 41°19' E 002°10'716.0
2017-Oct-15 08:45N 41°12' E 002°09'418.2
2017-Oct-15 08:30N 41°08' E 002°06'918.1
2017-Oct-15 08:01N 40°60' E 002°01'16419.8
2017-Oct-14 23:45N 38°35' E 000°22'620.1
2017-Oct-14 23:28N 38°30' E 000°18'4819.8
2017-Oct-14 21:03N 37°50' W 000°17'121.4
2017-Oct-14 21:00N 37°50' W 000°18'1121.5
2017-Oct-14 20:30N 37°41' W 000°25'1121.4
2017-Oct-14 20:00N 37°32' W 000°33'1121.5
2017-Oct-14 19:30N 37°25' W 000°43'1121.4
2017-Oct-14 19:00N 37°18' W 000°53'1121.2
2017-Oct-14 18:30N 37°10' W 001°03'1121.1
2017-Oct-14 18:00N 37°03' W 001°12'1121.0
2017-Oct-14 17:29N 36°56' W 001°22'2121.1
2017-Oct-14 16:30N 36°42' W 001°42'2421.6
2017-Oct-14 15:25N 36°27' W 002°04'15521.6
2017-Oct-14 08:15N 36°00' W 005°13'521.8
2017-Oct-14 08:00N 35°59' W 005°19'1121.4
2017-Oct-14 07:30N 35°57' W 005°32'4120.3
2017-Oct-14 05:30N 35°56' W 006°22'3420.7
2017-Oct-14 03:52N 36°05' W 007°03'720.4
2017-Oct-14 03:30N 36°07' W 007°11'1020.3
2017-Oct-14 03:00N 36°10' W 007°24'1019.8
2017-Oct-14 02:30N 36°12' W 007°35'1020.0
2017-Oct-14 02:00N 36°14' W 007°48'1020.4
2017-Oct-14 01:29N 36°17' W 008°00'1020.6
2017-Oct-14 01:00N 36°20' W 008°12'1120.3
2017-Oct-14 00:28N 36°22' W 008°25'1020.5
2017-Oct-14 00:00N 36°25' W 008°36'1020.7
2017-Oct-13 23:30N 36°28' W 008°49'1120.8
2017-Oct-13 23:00N 36°32' W 009°01'1021.1
2017-Oct-13 22:30N 36°35' W 009°13'1020.9
2017-Oct-13 22:00N 36°41' W 009°23'1121.0
2017-Oct-13 21:30N 36°49' W 009°32'1020.7
2017-Oct-13 21:00N 36°59' W 009°34'1021.0
2017-Oct-13 20:30N 37°10' W 009°36'1020.9
2017-Oct-13 20:00N 37°20' W 009°36'1020.8
2017-Oct-13 19:30N 37°30' W 009°34'1020.7
2017-Oct-13 19:00N 37°41' W 009°32'1020.4
2017-Oct-13 18:30N 37°51' W 009°31'1020.2
2017-Oct-13 18:00N 38°01' W 009°29'1020.4
2017-Oct-13 17:30N 38°11' W 009°27'1020.7
2017-Oct-13 17:00N 38°21' W 009°26'1020.6
2017-Oct-13 16:30N 38°31' W 009°24'918.4
2017-Oct-13 16:00N 38°40' W 009°19'611.5
2017-Oct-13 15:30N 38°41' W 009°12'4 7.2
2017-Oct-13 14:59N 38°43' W 009°07'0 0.0
2017-Oct-13 14:23N 38°43' W 009°07'0 0.0
2017-Oct-13 13:59N 38°43' W 009°07'0 0.0
2017-Oct-13 13:29N 38°43' W 009°07'0 0.0
2017-Oct-13 12:59N 38°43' W 009°07'0 0.0
2017-Oct-13 12:29N 38°43' W 009°07'0 0.0
2017-Oct-13 11:59N 38°43' W 009°07'0 0.0
2017-Oct-13 11:26N 38°43' W 009°07'0 0.0
2017-Oct-13 10:59N 38°43' W 009°07'0 0.0
2017-Oct-13 10:29N 38°43' W 009°07'0 0.0
2017-Oct-13 09:55N 38°43' W 009°07'0 0.0
2017-Oct-13 09:28N 38°43' W 009°07'0 0.0
2017-Oct-13 09:00N 38°43' W 009°07'0 0.0
2017-Oct-13 08:30N 38°43' W 009°07'0 0.0
2017-Oct-13 07:59N 38°43' W 009°07'0 0.0
2017-Oct-13 07:29N 38°43' W 009°07'0 0.0
2017-Oct-13 06:59N 38°43' W 009°07'0 0.1
2017-Oct-13 06:30N 38°43' W 009°07'6 8.2
2017-Oct-13 05:45N 38°41' W 009°15'2 9.3
2017-Oct-13 05:29N 38°41' W 009°18'510.4
2017-Oct-13 05:00N 38°37' W 009°23'612.5
2017-Oct-13 04:30N 38°31' W 009°23'611.2
2017-Oct-13 04:00N 38°25' W 009°23'611.2
2017-Oct-13 03:30N 38°20' W 009°23'611.1
2017-Oct-13 03:00N 38°14' W 009°23'611.5
2017-Oct-13 02:30N 38°08' W 009°23'611.5
2017-Oct-13 02:00N 38°02' W 009°22'611.6
2017-Oct-13 01:30N 37°57' W 009°22'611.6
2017-Oct-13 01:00N 37°51' W 009°22'611.3
2017-Oct-13 00:30N 37°45' W 009°22'511.0
2017-Oct-13 00:00N 37°40' W 009°22'611.1
2017-Oct-12 23:30N 37°34' W 009°22'611.4
2017-Oct-12 23:01N 37°29' W 009°22'611.7
2017-Oct-12 22:29N 37°22' W 009°22'612.1
2017-Oct-12 22:01N 37°17' W 009°22'612.2
2017-Oct-12 21:31N 37°11' W 009°22'1511.8
2017-Oct-12 20:16N 36°56' W 009°19'1911.3
2017-Oct-12 18:36N 36°42' W 009°03'411.4
2017-Oct-12 18:17N 36°40' W 008°60'312.1
2017-Oct-12 18:00N 36°38' W 008°57'712.0
2017-Oct-12 17:25N 36°31' W 008°53'912.2
2017-Oct-12 16:39N 36°23' W 008°49'312.2
2017-Oct-12 16:26N 36°20' W 008°48'612.2
2017-Oct-12 15:55N 36°14' W 008°45'612.3
2017-Oct-12 15:25N 36°08' W 008°42'512.1
2017-Oct-12 14:59N 36°03' W 008°40'612.1
2017-Oct-12 14:28N 35°57' W 008°37'612.2
2017-Oct-12 14:00N 35°52' W 008°35'713.0
2017-Oct-12 13:29N 35°46' W 008°32'612.2
2017-Oct-12 13:00N 35°41' W 008°29'612.0
2017-Oct-12 12:30N 35°35' W 008°26'612.3
2017-Oct-12 12:00N 35°29' W 008°24'612.2
2017-Oct-12 11:30N 35°23' W 008°21'612.5
2017-Oct-12 11:00N 35°17' W 008°19'612.1
2017-Oct-12 10:31N 35°12' W 008°17'713.6
2017-Oct-12 10:00N 35°05' W 008°14'713.3
2017-Oct-12 09:28N 34°59' W 008°10'613.4
2017-Oct-12 09:00N 34°53' W 008°08'713.1
2017-Oct-12 08:30N 34°47' W 008°05'713.0
2017-Oct-12 07:59N 34°41' W 008°02'613.1
2017-Oct-12 07:31N 34°35' W 007°60'713.1
2017-Oct-12 07:01N 34°29' W 007°57'712.8
2017-Oct-12 06:30N 34°22' W 007°54'613.1
2017-Oct-12 06:01N 34°16' W 007°51'713.4
2017-Oct-12 05:30N 34°10' W 007°48'713.3
2017-Oct-12 05:01N 34°04' W 007°45'713.8
2017-Oct-12 04:31N 33°58' W 007°41'713.5
2017-Oct-12 04:01N 33°52' W 007°38'118 4.2
2017-Oct-11 00:00N 35°36' W 006°30'4714.8
2017-Oct-10 20:51N 35°58' W 005°39'515.7
2017-Oct-10 20:30N 35°59' W 005°33'816.8
2017-Oct-10 20:00N 36°02' W 005°23'917.3
2017-Oct-10 19:30N 36°05' W 005°13'916.6
2017-Oct-10 18:59N 36°09' W 005°04'21210.4
2017-Oct-09 22:38N 37°20' W 000°55'220.0
2017-Oct-09 22:31N 37°22' W 000°53'1919.6
2017-Oct-09 21:33N 37°34' W 000°35'119.6
2017-Oct-09 21:31N 37°35' W 000°34'1019.5
2017-Oct-09 21:01N 37°43' W 000°27'1019.7
2017-Oct-09 20:30N 37°51' W 000°19'1019.8
2017-Oct-09 20:00N 37°59' W 000°12'18019.2
2017-Oct-09 10:39N 40°07' E 002°29'420.4
2017-Oct-09 10:27N 40°10' E 002°33'920.7
2017-Oct-09 10:00N 40°16' E 002°42'2020.9
2017-Oct-09 09:03N 40°29' E 003°02'120.7
2017-Oct-09 09:00N 40°30' E 003°03'31020.3
2017-Oct-08 17:46N 43°52' E 008°20'621.9
2017-Oct-08 17:30N 43°56' E 008°26'1121.7
2017-Oct-08 17:01N 44°03' E 008°36'1121.5
2017-Oct-08 16:31N 44°11' E 008°47'1121.2
2017-Oct-08 16:01N 44°19' E 008°57'611.3
2017-Oct-08 15:30N 44°24' E 008°55'0 0.6
2017-Oct-08 15:00N 44°25' E 008°55'0 0.0
2017-Oct-08 14:30N 44°25' E 008°55'0 0.0
2017-Oct-08 13:57N 44°25' E 008°55'0 0.0
2017-Oct-08 13:27N 44°25' E 008°55'0 0.0
2017-Oct-08 12:59N 44°25' E 008°55'0 0.0
2017-Oct-08 12:29N 44°25' E 008°55'0 0.0
2017-Oct-08 11:59N 44°25' E 008°55'0 0.0
2017-Oct-08 11:30N 44°25' E 008°55'0 0.0
2017-Oct-08 10:58N 44°25' E 008°55'0 0.0
2017-Oct-08 10:28N 44°25' E 008°55'  
Track history (hours):
 
Tides and Currents Weather Stations Pressure Air Temp Water Temp Dewpoint Dewpoint Depression Visibility Wind Speed Wind Dir Waves Ship Positions

MSC Magnifica

Last reported at 2017-Oct-18 10:25 UTC. Time now 2017-Oct-18 12:59 UTC.
Position N 40°08' E 002°29'.

Length 293 m; draft 7.8 m.

Type: Passenger vessel. MMSI: 352594000.

Date/timePositionNaut miles runAvg speedWind from/ knotsBaromVisibWave heightAir tempDewpointWater temp
2017-Oct-18 10:25N 40°08' E 002°29'919.8
2017-Oct-18 09:57N 40°13' E 002°38'920.5
2017-Oct-18 09:30N 40°19' E 002°48'1121.2
2017-Oct-18 08:59N 40°26' E 002°59'21620.1
2017-Oct-17 22:15N 42°45' E 006°40'720.4
2017-Oct-17 21:54N 42°50' E 006°47'1620.2
2017-Oct-17 21:05N 43°01' E 007°04'220.2
2017-Oct-17 21:00N 43°02' E 007°06'1020.3
2017-Oct-17 20:31N 43°09' E 007°16'1020.1
2017-Oct-17 20:01N 43°15' E 007°26'1020.0
2017-Oct-17 19:30N 43°22' E 007°36'1020.1
2017-Oct-17 19:01N 43°29' E 007°46'1020.4
2017-Oct-17 18:31N 43°36' E 007°56'1020.4
2017-Oct-17 18:00N 43°43' E 008°07'1020.5
2017-Oct-17 17:30N 43°50' E 008°17'1020.8
2017-Oct-17 17:00N 43°57' E 008°28'1122.0
2017-Oct-17 16:30N 44°05' E 008°38'1121.5
2017-Oct-17 16:01N 44°12' E 008°49'1020.7
2017-Oct-17 15:31N 44°21' E 008°57'4 8.0
2017-Oct-17 15:00N 44°25' E 008°55'0 0.0
2017-Oct-17 14:28N 44°25' E 008°55'0 0.0
2017-Oct-17 13:58N 44°25' E 008°55'0 0.0
2017-Oct-17 13:28N 44°25' E 008°55'0 0.0
2017-Oct-17 12:57N 44°25' E 008°55'0 0.0
2017-Oct-17 12:30N 44°25' E 008°55'0 0.0
2017-Oct-17 11:57N 44°25' E 008°55'0 0.0
2017-Oct-17 11:30N 44°25' E 008°55'0 0.0
2017-Oct-17 11:00N 44°25' E 008°55'0 0.0
2017-Oct-17 10:30N 44°25' E 008°55'0 0.0
2017-Oct-17 10:00N 44°25' E 008°55'0 0.0
2017-Oct-17 09:30N 44°25' E 008°55'0 0.0
2017-Oct-17 08:59N 44°25' E 008°55'0 0.0
2017-Oct-17 08:29N 44°25' E 008°55'0 0.0
2017-Oct-17 07:59N 44°25' E 008°55'0 0.0
2017-Oct-17 07:29N 44°25' E 008°55'0 0.2
2017-Oct-17 07:00N 44°25' E 008°55'1 2.7
2017-Oct-17 06:30N 44°23' E 008°56'3 5.9
2017-Oct-17 06:00N 44°21' E 008°58'815.2
2017-Oct-17 05:30N 44°14' E 008°53'918.1
2017-Oct-17 05:00N 44°07' E 008°45'917.7
2017-Oct-17 04:30N 44°01' E 008°37'917.7
2017-Oct-17 04:00N 43°54' E 008°29'917.7
2017-Oct-17 03:30N 43°47' E 008°21'917.5
2017-Oct-17 03:00N 43°41' E 008°12'714.9
2017-Oct-17 02:30N 43°37' E 008°04'814.8
2017-Oct-17 01:59N 43°32' E 007°55'714.7
2017-Oct-17 01:30N 43°29' E 007°47'714.8
2017-Oct-17 01:00N 43°25' E 007°38'714.8
2017-Oct-17 00:30N 43°21' E 007°29'714.7
2017-Oct-17 00:00N 43°18' E 007°20'814.5
2017-Oct-16 23:29N 43°14' E 007°11'714.3
2017-Oct-16 22:59N 43°11' E 007°03'714.1
2017-Oct-16 22:30N 43°08' E 006°54'713.7
2017-Oct-16 22:00N 43°04' E 006°46'813.9
2017-Oct-16 21:27N 43°00' E 006°37'813.8
2017-Oct-16 20:54N 42°57' E 006°28'513.9
2017-Oct-16 20:31N 42°56' E 006°21'714.3
2017-Oct-16 20:00N 42°56' E 006°11'714.3
2017-Oct-16 19:30N 42°57' E 006°01'714.5
2017-Oct-16 19:00N 42°59' E 005°52'714.5
2017-Oct-16 18:30N 43°02' E 005°43'1514.8
2017-Oct-16 17:28N 43°08' E 005°23'714.2
2017-Oct-16 17:00N 43°13' E 005°17'713.5
2017-Oct-16 16:28N 43°20' E 005°18'2 0.4
2017-Oct-16 11:52N 43°21' E 005°20'0 0.0
2017-Oct-16 11:28N 43°21' E 005°20'0 0.0
2017-Oct-16 08:16N 43°21' E 005°20'0 0.0
2017-Oct-16 07:49N 43°21' E 005°20'0 0.0
2017-Oct-16 07:22N 43°21' E 005°20'0 0.0
2017-Oct-16 06:54N 43°21' E 005°20'0 0.0
2017-Oct-16 06:09N 43°21' E 005°20'0 0.0
2017-Oct-16 06:00N 43°21' E 005°20'0 0.8
2017-Oct-16 05:30N 43°21' E 005°20'510.9
2017-Oct-16 05:00N 43°18' E 005°13'816.8
2017-Oct-16 04:30N 43°10' E 005°08'1117.9
2017-Oct-16 03:52N 43°01' E 004°58'617.7
2017-Oct-16 03:31N 42°56' E 004°54'714.7
2017-Oct-16 03:00N 42°50' E 004°48'1014.0
2017-Oct-16 02:19N 42°43' E 004°39'614.2
2017-Oct-16 01:53N 42°39' E 004°33'514.5
2017-Oct-16 01:31N 42°35' E 004°27'1614.5
2017-Oct-16 00:26N 42°24' E 004°12'614.9
2017-Oct-16 00:00N 42°20' E 004°05'715.0
2017-Oct-15 23:30N 42°15' E 003°58'1815.0
2017-Oct-15 22:20N 42°03' E 003°40'1318.0
2017-Oct-15 21:36N 41°54' E 003°27'6816.7
2017-Oct-15 17:32N 41°18' E 002°10'1 0.1
2017-Oct-15 09:11N 41°19' E 002°10'716.0
2017-Oct-15 08:45N 41°12' E 002°09'418.2
2017-Oct-15 08:30N 41°08' E 002°06'918.1
2017-Oct-15 08:01N 40°60' E 002°01'16419.8
2017-Oct-14 23:45N 38°35' E 000°22'620.1
2017-Oct-14 23:28N 38°30' E 000°18'4819.8
2017-Oct-14 21:03N 37°50' W 000°17'121.4
2017-Oct-14 21:00N 37°50' W 000°18'1121.5
2017-Oct-14 20:30N 37°41' W 000°25'1121.4
2017-Oct-14 20:00N 37°32' W 000°33'1121.5
2017-Oct-14 19:30N 37°25' W 000°43'1121.4
2017-Oct-14 19:00N 37°18' W 000°53'1121.2
2017-Oct-14 18:30N 37°10' W 001°03'1121.1
2017-Oct-14 18:00N 37°03' W 001°12'1121.0
2017-Oct-14 17:29N 36°56' W 001°22'2121.1
2017-Oct-14 16:30N 36°42' W 001°42'2421.6
2017-Oct-14 15:25N 36°27' W 002°04'15521.6
2017-Oct-14 08:15N 36°00' W 005°13'521.8
2017-Oct-14 08:00N 35°59' W 005°19'1121.4
2017-Oct-14 07:30N 35°57' W 005°32'4120.3
2017-Oct-14 05:30N 35°56' W 006°22'3420.7
2017-Oct-14 03:52N 36°05' W 007°03'720.4
2017-Oct-14 03:30N 36°07' W 007°11'1020.3
2017-Oct-14 03:00N 36°10' W 007°24'1019.8
2017-Oct-14 02:30N 36°12' W 007°35'1020.0
2017-Oct-14 02:00N 36°14' W 007°48'1020.4
2017-Oct-14 01:29N 36°17' W 008°00'1020.6
2017-Oct-14 01:00N 36°20' W 008°12'1120.3
2017-Oct-14 00:28N 36°22' W 008°25'1020.5
2017-Oct-14 00:00N 36°25' W 008°36'1020.7
2017-Oct-13 23:30N 36°28' W 008°49'1120.8
2017-Oct-13 23:00N 36°32' W 009°01'1021.1
2017-Oct-13 22:30N 36°35' W 009°13'1020.9
2017-Oct-13 22:00N 36°41' W 009°23'1121.0
2017-Oct-13 21:30N 36°49' W 009°32'1020.7
2017-Oct-13 21:00N 36°59' W 009°34'1021.0
2017-Oct-13 20:30N 37°10' W 009°36'1020.9
2017-Oct-13 20:00N 37°20' W 009°36'1020.8
2017-Oct-13 19:30N 37°30' W 009°34'1020.7
2017-Oct-13 19:00N 37°41' W 009°32'1020.4
2017-Oct-13 18:30N 37°51' W 009°31'1020.2
2017-Oct-13 18:00N 38°01' W 009°29'1020.4
2017-Oct-13 17:30N 38°11' W 009°27'1020.7
2017-Oct-13 17:00N 38°21' W 009°26'1020.6
2017-Oct-13 16:30N 38°31' W 009°24'918.4
2017-Oct-13 16:00N 38°40' W 009°19'611.5
2017-Oct-13 15:30N 38°41' W 009°12'4 7.2
2017-Oct-13 14:59N 38°43' W 009°07'0 0.0
2017-Oct-13 14:23N 38°43' W 009°07'0 0.0
2017-Oct-13 13:59N 38°43' W 009°07'0 0.0
2017-Oct-13 13:29N 38°43' W 009°07'0 0.0
2017-Oct-13 12:59N 38°43' W 009°07'0 0.0
2017-Oct-13 12:29N 38°43' W 009°07'0 0.0
2017-Oct-13 11:59N 38°43' W 009°07'0 0.0
2017-Oct-13 11:26N 38°43' W 009°07'0 0.0
2017-Oct-13 10:59N 38°43' W 009°07'0 0.0
2017-Oct-13 10:29N 38°43' W 009°07'0 0.0
2017-Oct-13 09:55N 38°43' W 009°07'0 0.0
2017-Oct-13 09:28N 38°43' W 009°07'0 0.0
2017-Oct-13 09:00N 38°43' W 009°07'0 0.0
2017-Oct-13 08:30N 38°43' W 009°07'0 0.0
2017-Oct-13 07:59N 38°43' W 009°07'0 0.0
2017-Oct-13 07:29N 38°43' W 009°07'0 0.0
2017-Oct-13 06:59N 38°43' W 009°07'0 0.1
2017-Oct-13 06:30N 38°43' W 009°07'6 8.2
2017-Oct-13 05:45N 38°41' W 009°15'2 9.3
2017-Oct-13 05:29N 38°41' W 009°18'510.4
2017-Oct-13 05:00N 38°37' W 009°23'612.5
2017-Oct-13 04:30N 38°31' W 009°23'611.2
2017-Oct-13 04:00N 38°25' W 009°23'611.2
2017-Oct-13 03:30N 38°20' W 009°23'611.1
2017-Oct-13 03:00N 38°14' W 009°23'611.5
2017-Oct-13 02:30N 38°08' W 009°23'611.5
2017-Oct-13 02:00N 38°02' W 009°22'611.6
2017-Oct-13 01:30N 37°57' W 009°22'611.6
2017-Oct-13 01:00N 37°51' W 009°22'611.3
2017-Oct-13 00:30N 37°45' W 009°22'511.0
2017-Oct-13 00:00N 37°40' W 009°22'611.1
2017-Oct-12 23:30N 37°34' W 009°22'611.4
2017-Oct-12 23:01N 37°29' W 009°22'611.7
2017-Oct-12 22:29N 37°22' W 009°22'612.1
2017-Oct-12 22:01N 37°17' W 009°22'612.2
2017-Oct-12 21:31N 37°11' W 009°22'1511.8
2017-Oct-12 20:16N 36°56' W 009°19'1911.3
2017-Oct-12 18:36N 36°42' W 009°03'411.4
2017-Oct-12 18:17N 36°40' W 008°60'312.1
2017-Oct-12 18:00N 36°38' W 008°57'712.0
2017-Oct-12 17:25N 36°31' W 008°53'912.2
2017-Oct-12 16:39N 36°23' W 008°49'312.2
2017-Oct-12 16:26N 36°20' W 008°48'612.2
2017-Oct-12 15:55N 36°14' W 008°45'612.3
2017-Oct-12 15:25N 36°08' W 008°42'512.1
2017-Oct-12 14:59N 36°03' W 008°40'612.1
2017-Oct-12 14:28N 35°57' W 008°37'612.2
2017-Oct-12 14:00N 35°52' W 008°35'713.0
2017-Oct-12 13:29N 35°46' W 008°32'612.2
2017-Oct-12 13:00N 35°41' W 008°29'612.0
2017-Oct-12 12:30N 35°35' W 008°26'612.3
2017-Oct-12 12:00N 35°29' W 008°24'612.2
2017-Oct-12 11:30N 35°23' W 008°21'612.5
2017-Oct-12 11:00N 35°17' W 008°19'612.1
2017-Oct-12 10:31N 35°12' W 008°17'713.6
2017-Oct-12 10:00N 35°05' W 008°14'713.3
2017-Oct-12 09:28N 34°59' W 008°10'613.4
2017-Oct-12 09:00N 34°53' W 008°08'713.1
2017-Oct-12 08:30N 34°47' W 008°05'713.0
2017-Oct-12 07:59N 34°41' W 008°02'613.1
2017-Oct-12 07:31N 34°35' W 007°60'713.1
2017-Oct-12 07:01N 34°29' W 007°57'712.8
2017-Oct-12 06:30N 34°22' W 007°54'613.1
2017-Oct-12 06:01N 34°16' W 007°51'713.4
2017-Oct-12 05:30N 34°10' W 007°48'713.3
2017-Oct-12 05:01N 34°04' W 007°45'713.8
2017-Oct-12 04:31N 33°58' W 007°41'713.5
2017-Oct-12 04:01N 33°52' W 007°38'118 4.2
2017-Oct-11 00:00N 35°36' W 006°30'4714.8
2017-Oct-10 20:51N 35°58' W 005°39'515.7
2017-Oct-10 20:30N 35°59' W 005°33'816.8
2017-Oct-10 20:00N 36°02' W 005°23'917.3
2017-Oct-10 19:30N 36°05' W 005°13'916.6
2017-Oct-10 18:59N 36°09' W 005°04'21210.4
2017-Oct-09 22:38N 37°20' W 000°55'220.0
2017-Oct-09 22:31N 37°22' W 000°53'1919.6
2017-Oct-09 21:33N 37°34' W 000°35'119.6
2017-Oct-09 21:31N 37°35' W 000°34'1019.5
2017-Oct-09 21:01N 37°43' W 000°27'1019.7
2017-Oct-09 20:30N 37°51' W 000°19'1019.8
2017-Oct-09 20:00N 37°59' W 000°12'18019.2
2017-Oct-09 10:39N 40°07' E 002°29'420.4
2017-Oct-09 10:27N 40°10' E 002°33'920.7
2017-Oct-09 10:00N 40°16' E 002°42'2020.9
2017-Oct-09 09:03N 40°29' E 003°02'120.7
2017-Oct-09 09:00N 40°30' E 003°03'31020.3
2017-Oct-08 17:46N 43°52' E 008°20'621.9
2017-Oct-08 17:30N 43°56' E 008°26'1121.7
2017-Oct-08 17:01N 44°03' E 008°36'1121.5
2017-Oct-08 16:31N 44°11' E 008°47'1121.2
2017-Oct-08 16:01N 44°19' E 008°57'611.3
2017-Oct-08 15:30N 44°24' E 008°55'0 0.6
2017-Oct-08 15:00N 44°25' E 008°55'0 0.0
2017-Oct-08 14:30N 44°25' E 008°55'0 0.0
2017-Oct-08 13:57N 44°25' E 008°55'0 0.0
2017-Oct-08 13:27N 44°25' E 008°55'0 0.0
2017-Oct-08 12:59N 44°25' E 008°55'0 0.0
2017-Oct-08 12:29N 44°25' E 008°55'0 0.0
2017-Oct-08 11:59N 44°25' E 008°55'0 0.0
2017-Oct-08 11:30N 44°25' E 008°55'0 0.0
2017-Oct-08 10:58N 44°25' E 008°55'0 0.0
2017-Oct-08 10:28N 44°25' E 008°55'  

Dump ship's entire track history